Magnet Cove, Arkansas
Current Conditions -  °F | °C
As of 1:53 PM on Friday 31 Oct 2014 (Local Time) from KHOT Reporting Station
Scattered Clouds Scattered Clouds  
Wind Chill: 65°   Ceiling: Unl
Heat Index: 65°   Visibility: 10mi
Dew Point: 40°   Wind: 8mph
Humidity: 40%   Direction: 330°NNW
Pressure: 30.23"   Gusts: 20mph
Location:  34.3189°N, 92.8629°W
Report Text: KHOT 311853Z AUTO 33007G17KT 10SM SCT048 18/04 A3023 RMK AO2 SLP234 T01830044
Loading
Personal Weather Stations






























Interactive Weather Map
Tropical Storm Tracking
New forecast layout! Learn more

10-Day Weather Forecast

Advertisements
Track Severe Weather on mobile